sensor_id;sensor_type;location;lat;lon;timestamp;P1;P2;P0
65556;PMS3003;52200;53.490;14.376;2023-09-12T00:00:38;35.50;33.00;20.00
65556;PMS3003;52200;53.490;14.376;2023-09-12T00:03:03;35.00;33.25;21.00
65556;PMS3003;52200;53.490;14.376;2023-09-12T00:05:29;38.25;34.25;20.50
65556;PMS3003;52200;53.490;14.376;2023-09-12T00:07:54;33.75;32.25;20.75
65556;PMS3003;52200;53.490;14.376;2023-09-12T00:10:19;38.75;33.50;20.75
65556;PMS3003;52200;53.490;14.376;2023-09-12T00:12:45;32.75;31.75;20.50
65556;PMS3003;52200;53.490;14.376;2023-09-12T00:15:10;35.25;33.00;21.25
65556;PMS3003;52200;53.490;14.376;2023-09-12T00:17:36;35.75;33.25;20.25
65556;PMS3003;52200;53.490;14.376;2023-09-12T00:20:01;34.50;32.75;20.50
65556;PMS3003;52200;53.490;14.376;2023-09-12T00:22:27;34.20;32.20;19.80
65556;PMS3003;52200;53.490;14.376;2023-09-12T00:24:53;29.25;29.00;19.75
65556;PMS3003;52200;53.490;14.376;2023-09-12T00:27:18;32.50;30.75;20.00
65556;PMS3003;52200;53.490;14.376;2023-09-12T00:29:43;31.00;30.25;18.75
65556;PMS3003;52200;53.490;14.376;2023-09-12T00:32:09;28.75;28.50;18.25
65556;PMS3003;52200;53.490;14.376;2023-09-12T00:34:34;32.25;30.25;18.75
65556;PMS3003;52200;53.490;14.376;2023-09-12T00:36:59;31.00;30.50;18.75
65556;PMS3003;52200;53.490;14.376;2023-09-12T00:39:25;33.50;31.25;19.75
65556;PMS3003;52200;53.490;14.376;2023-09-12T00:41:50;29.50;29.25;19.50
65556;PMS3003;52200;53.490;14.376;2023-09-12T00:44:15;29.25;29.25;19.25
65556;PMS3003;52200;53.490;14.376;2023-09-12T00:46:40;32.75;30.50;17.75
65556;PMS3003;52200;53.490;14.376;2023-09-12T00:49:08;35.60;33.40;20.00
65556;PMS3003;52200;53.490;14.376;2023-09-12T00:51:35;37.00;34.40;22.40
65556;PMS3003;52200;53.490;14.376;2023-09-12T00:54:01;36.80;33.40;21.20
65556;PMS3003;52200;53.490;14.376;2023-09-12T00:56:27;36.50;33.75;22.00
65556;PMS3003;52200;53.490;14.376;2023-09-12T00:58:52;37.50;34.00;21.25
65556;PMS3003;52200;53.490;14.376;2023-09-12T01:01:18;35.75;33.00;21.00
65556;PMS3003;52200;53.490;14.376;2023-09-12T01:03:45;35.20;33.00;21.20
65556;PMS3003;52200;53.490;14.376;2023-09-12T01:06:10;35.50;33.25;21.00
65556;PMS3003;52200;53.490;14.376;2023-09-12T01:08:37;35.40;33.40;21.20
65556;PMS3003;52200;53.490;14.376;2023-09-12T01:11:03;30.00;29.80;18.40
65556;PMS3003;52200;53.490;14.376;2023-09-12T01:13:29;31.00;30.50;19.00
65556;PMS3003;52200;53.490;14.376;2023-09-12T01:15:54;32.25;31.50;19.50
65556;PMS3003;52200;53.490;14.376;2023-09-12T01:18:19;32.25;31.00;17.75
65556;PMS3003;52200;53.490;14.376;2023-09-12T01:20:52;32.00;31.00;19.25
65556;PMS3003;52200;53.490;14.376;2023-09-12T01:28:23;29.00;28.60;18.60
65556;PMS3003;52200;53.490;14.376;2023-09-12T01:30:52;28.40;27.60;17.40
65556;PMS3003;52200;53.490;14.376;2023-09-12T01:33:19;28.60;27.80;16.00
65556;PMS3003;52200;53.490;14.376;2023-09-12T01:35:45;25.80;25.80;16.20
65556;PMS3003;52200;53.490;14.376;2023-09-12T01:38:11;25.80;25.00;16.00
65556;PMS3003;52200;53.490;14.376;2023-09-12T01:40:39;28.60;28.60;17.00
65556;PMS3003;52200;53.490;14.376;2023-09-12T01:43:11;29.40;28.80;18.00
65556;PMS3003;52200;53.490;14.376;2023-09-12T01:45:38;30.80;29.40;17.80
65556;PMS3003;52200;53.490;14.376;2023-09-12T01:48:04;29.00;28.25;17.75
65556;PMS3003;52200;53.490;14.376;2023-09-12T01:50:31;36.20;32.80;21.00
65556;PMS3003;52200;53.490;14.376;2023-09-12T01:52:58;32.00;31.00;20.60
65556;PMS3003;52200;53.490;14.376;2023-09-12T01:55:24;34.80;33.00;20.20
65556;PMS3003;52200;53.490;14.376;2023-09-12T01:57:50;32.00;31.00;19.40
65556;PMS3003;52200;53.490;14.376;2023-09-12T02:00:17;36.00;33.25;21.00
65556;PMS3003;52200;53.490;14.376;2023-09-12T02:02:43;33.60;32.40;21.00
65556;PMS3003;52200;53.490;14.376;2023-09-12T02:05:13;37.25;33.25;21.00
65556;PMS3003;52200;53.490;14.376;2023-09-12T02:07:43;35.00;32.20;21.00
65556;PMS3003;52200;53.490;14.376;2023-09-12T02:10:09;36.20;33.80;20.40
65556;PMS3003;52200;53.490;14.376;2023-09-12T02:12:35;36.50;34.00;21.25
65556;PMS3003;52200;53.490;14.376;2023-09-12T02:15:00;35.50;33.75;21.00
65556;PMS3003;52200;53.490;14.376;2023-09-12T02:17:25;30.75;30.75;19.25
65556;PMS3003;52200;53.490;14.376;2023-09-12T02:19:51;34.00;31.75;19.75
65556;PMS3003;52200;53.490;14.376;2023-09-12T02:22:16;34.25;31.25;19.75
65556;PMS3003;52200;53.490;14.376;2023-09-12T02:24:41;32.50;30.75;18.75
65556;PMS3003;52200;53.490;14.376;2023-09-12T02:27:07;32.50;30.75;19.50
65556;PMS3003;52200;53.490;14.376;2023-09-12T02:29:32;25.00;24.75;17.00
65556;PMS3003;52200;53.490;14.376;2023-09-12T02:31:58;27.50;27.25;16.75
65556;PMS3003;52200;53.490;14.376;2023-09-12T02:34:23;26.20;25.60;16.00
65556;PMS3003;52200;53.490;14.376;2023-09-12T02:36:49;26.75;26.25;18.00
65556;PMS3003;52200;53.490;14.376;2023-09-12T02:39:14;27.25;26.75;16.75
65556;PMS3003;52200;53.490;14.376;2023-09-12T02:41:40;26.20;25.80;16.40
65556;PMS3003;52200;53.490;14.376;2023-09-12T02:44:05;29.25;28.75;17.50
65556;PMS3003;52200;53.490;14.376;2023-09-12T02:46:31;27.25;27.25;17.50
65556;PMS3003;52200;53.490;14.376;2023-09-12T02:48:56;30.00;29.25;18.25
65556;PMS3003;52200;53.490;14.376;2023-09-12T02:51:21;32.50;31.00;18.50
65556;PMS3003;52200;53.490;14.376;2023-09-12T02:53:47;36.50;34.25;21.50
65556;PMS3003;52200;53.490;14.376;2023-09-12T02:56:12;34.50;33.50;20.75
65556;PMS3003;52200;53.490;14.376;2023-09-12T02:58:37;38.50;34.25;21.00
65556;PMS3003;52200;53.490;14.376;2023-09-12T03:01:03;39.50;35.75;21.00
65556;PMS3003;52200;53.490;14.376;2023-09-12T03:03:31;37.80;33.80;22.40
65556;PMS3003;52200;53.490;14.376;2023-09-12T03:05:57;35.25;33.75;20.00
65556;PMS3003;52200;53.490;14.376;2023-09-12T03:08:23;35.00;33.00;21.00
65556;PMS3003;52200;53.490;14.376;2023-09-12T03:10:52;33.00;31.75;20.00
65556;PMS3003;52200;53.490;14.376;2023-09-12T03:13:21;34.80;31.80;20.80
65556;PMS3003;52200;53.490;14.376;2023-09-12T03:15:47;33.20;31.80;20.80
65556;PMS3003;52200;53.490;14.376;2023-09-12T03:18:12;36.75;33.50;21.25
65556;PMS3003;52200;53.490;14.376;2023-09-12T03:20:38;39.00;35.00;21.50
65556;PMS3003;52200;53.490;14.376;2023-09-12T03:23:04;38.40;35.00;22.40
65556;PMS3003;52200;53.490;14.376;2023-09-12T03:25:30;38.50;34.75;21.00
65556;PMS3003;52200;53.490;14.376;2023-09-12T03:27:55;41.50;36.25;21.00
65556;PMS3003;52200;53.490;14.376;2023-09-12T03:30:20;35.75;34.00;22.25
65556;PMS3003;52200;53.490;14.376;2023-09-12T03:32:46;39.40;35.00;23.00
65556;PMS3003;52200;53.490;14.376;2023-09-12T03:35:11;38.25;33.75;21.00
65556;PMS3003;52200;53.490;14.376;2023-09-12T03:37:37;37.50;34.75;22.50
65556;PMS3003;52200;53.490;14.376;2023-09-12T03:40:08;41.40;35.80;22.60
65556;PMS3003;52200;53.490;14.376;2023-09-12T03:42:34;40.20;35.00;23.00
65556;PMS3003;52200;53.490;14.376;2023-09-12T03:44:59;39.00;34.00;21.25
65556;PMS3003;52200;53.490;14.376;2023-09-12T03:47:24;39.75;35.75;22.00
65556;PMS3003;52200;53.490;14.376;2023-09-12T03:49:50;40.00;35.00;22.00
65556;PMS3003;52200;53.490;14.376;2023-09-12T03:52:15;37.25;34.00;21.00
65556;PMS3003;52200;53.490;14.376;2023-09-12T03:54:40;40.00;34.75;21.50
65556;PMS3003;52200;53.490;14.376;2023-09-12T03:57:06;38.75;34.25;21.25
65556;PMS3003;52200;53.490;14.376;2023-09-12T03:59:31;35.25;33.00;21.00
65556;PMS3003;52200;53.490;14.376;2023-09-12T04:01:56;37.00;34.75;21.00
65556;PMS3003;52200;53.490;14.376;2023-09-12T04:04:22;35.80;34.00;21.40
65556;PMS3003;52200;53.490;14.376;2023-09-12T04:06:48;42.00;36.50;22.00
65556;PMS3003;52200;53.490;14.376;2023-09-12T04:09:13;38.75;34.75;22.00
65556;PMS3003;52200;53.490;14.376;2023-09-12T04:11:38;39.75;35.00;22.00
65556;PMS3003;52200;53.490;14.376;2023-09-12T04:14:04;39.00;35.00;22.25
65556;PMS3003;52200;53.490;14.376;2023-09-12T04:16:29;38.25;34.50;23.00
65556;PMS3003;52200;53.490;14.376;2023-09-12T04:18:56;37.80;34.00;22.40
65556;PMS3003;52200;53.490;14.376;2023-09-12T04:21:21;37.00;34.75;21.75
65556;PMS3003;52200;53.490;14.376;2023-09-12T04:23:46;38.50;34.75;21.00
65556;PMS3003;52200;53.490;14.376;2023-09-12T04:26:12;36.50;33.50;20.50
65556;PMS3003;52200;53.490;14.376;2023-09-12T04:28:37;32.75;30.75;19.00
65556;PMS3003;52200;53.490;14.376;2023-09-12T04:31:03;35.00;31.00;20.50
65556;PMS3003;52200;53.490;14.376;2023-09-12T04:33:29;34.00;32.40;21.00
65556;PMS3003;52200;53.490;14.376;2023-09-12T04:35:56;34.25;31.00;19.50
65556;PMS3003;52200;53.490;14.376;2023-09-12T04:38:22;31.60;30.00;18.00
65556;PMS3003;52200;53.490;14.376;2023-09-12T04:40:55;33.00;31.60;19.20
65556;PMS3003;52200;53.490;14.376;2023-09-12T04:43:21;35.40;33.60;21.00
65556;PMS3003;52200;53.490;14.376;2023-09-12T04:45:46;35.75;32.00;20.50
65556;PMS3003;52200;53.490;14.376;2023-09-12T04:48:13;28.60;28.00;17.20
65556;PMS3003;52200;53.490;14.376;2023-09-12T04:50:42;33.50;32.00;19.00
65556;PMS3003;52200;53.490;14.376;2023-09-12T04:53:10;32.60;31.60;19.60
65556;PMS3003;52200;53.490;14.376;2023-09-12T04:55:36;33.00;32.00;20.25
65556;PMS3003;52200;53.490;14.376;2023-09-12T04:58:03;39.25;34.00;21.00
65556;PMS3003;52200;53.490;14.376;2023-09-12T05:00:29;33.00;31.00;20.00
65556;PMS3003;52200;53.490;14.376;2023-09-12T05:02:55;30.75;30.50;19.75
65556;PMS3003;52200;53.490;14.376;2023-09-12T05:05:20;35.50;33.25;21.00
65556;PMS3003;52200;53.490;14.376;2023-09-12T05:07:45;35.25;33.25;20.25
65556;PMS3003;52200;53.490;14.376;2023-09-12T05:10:11;35.50;33.50;21.00
65556;PMS3003;52200;53.490;14.376;2023-09-12T05:12:36;38.50;34.75;22.50
65556;PMS3003;52200;53.490;14.376;2023-09-12T05:15:01;34.50;33.25;21.00
65556;PMS3003;52200;53.490;14.376;2023-09-12T05:17:27;39.60;34.00;20.80
65556;PMS3003;52200;53.490;14.376;2023-09-12T05:19:53;36.25;32.00;20.25
65556;PMS3003;52200;53.490;14.376;2023-09-12T05:22:18;32.00;31.50;20.25
65556;PMS3003;52200;53.490;14.376;2023-09-12T05:24:45;32.40;31.20;18.40
65556;PMS3003;52200;53.490;14.376;2023-09-12T05:27:10;37.20;33.00;19.40
65556;PMS3003;52200;53.490;14.376;2023-09-12T05:29:36;37.80;33.80;18.80
65556;PMS3003;52200;53.490;14.376;2023-09-12T05:32:02;34.50;33.00;21.00
65556;PMS3003;52200;53.490;14.376;2023-09-12T05:34:28;36.60;34.00;20.80
65556;PMS3003;52200;53.490;14.376;2023-09-12T05:36:53;39.75;36.00;22.75
65556;PMS3003;52200;53.490;14.376;2023-09-12T05:39:19;42.25;36.00;23.25
65556;PMS3003;52200;53.490;14.376;2023-09-12T05:41:44;46.75;38.75;22.25
65556;PMS3003;52200;53.490;14.376;2023-09-12T05:44:10;42.50;37.25;22.50
65556;PMS3003;52200;53.490;14.376;2023-09-12T05:46:37;43.20;35.20;23.80
65556;PMS3003;52200;53.490;14.376;2023-09-12T05:49:03;47.00;39.25;25.00
65556;PMS3003;52200;53.490;14.376;2023-09-12T05:51:29;46.25;39.00;23.00
65556;PMS3003;52200;53.490;14.376;2023-09-12T05:53:54;46.00;38.25;24.00
65556;PMS3003;52200;53.490;14.376;2023-09-12T05:56:20;46.00;39.50;24.75
65556;PMS3003;52200;53.490;14.376;2023-09-12T05:58:45;47.50;39.00;24.00
65556;PMS3003;52200;53.490;14.376;2023-09-12T06:01:11;47.25;40.00;24.75
65556;PMS3003;52200;53.490;14.376;2023-09-12T06:03:36;46.75;38.50;24.00
65556;PMS3003;52200;53.490;14.376;2023-09-12T06:06:02;48.25;40.25;24.00
65556;PMS3003;52200;53.490;14.376;2023-09-12T06:08:27;47.50;39.75;24.00
65556;PMS3003;52200;53.490;14.376;2023-09-12T06:10:53;45.00;39.50;25.00
65556;PMS3003;52200;53.490;14.376;2023-09-12T06:13:19;54.75;45.00;28.75
65556;PMS3003;52200;53.490;14.376;2023-09-12T06:15:45;44.25;38.00;23.25
65556;PMS3003;52200;53.490;14.376;2023-09-12T06:18:10;44.75;37.50;24.50
65556;PMS3003;52200;53.490;14.376;2023-09-12T06:20:36;44.75;37.00;23.75
65556;PMS3003;52200;53.490;14.376;2023-09-12T06:23:01;44.25;38.00;23.00
65556;PMS3003;52200;53.490;14.376;2023-09-12T06:25:28;48.20;40.00;25.60
65556;PMS3003;52200;53.490;14.376;2023-09-12T06:27:54;40.40;36.00;23.20
65556;PMS3003;52200;53.490;14.376;2023-09-12T06:30:19;42.25;36.25;23.00
65556;PMS3003;52200;53.490;14.376;2023-09-12T06:32:45;42.25;36.00;23.00
65556;PMS3003;52200;53.490;14.376;2023-09-12T06:35:10;45.50;37.75;23.00
65556;PMS3003;52200;53.490;14.376;2023-09-12T06:37:37;45.25;38.00;23.50
65556;PMS3003;52200;53.490;14.376;2023-09-12T06:40:04;37.80;34.20;21.20
65556;PMS3003;52200;53.490;14.376;2023-09-12T06:42:30;41.40;35.00;22.00
65556;PMS3003;52200;53.490;14.376;2023-09-12T06:44:55;43.75;36.00;22.00
65556;PMS3003;52200;53.490;14.376;2023-09-12T06:47:20;39.50;35.00;22.25
65556;PMS3003;52200;53.490;14.376;2023-09-12T06:49:45;39.50;35.00;22.50
65556;PMS3003;52200;53.490;14.376;2023-09-12T06:52:11;39.25;34.50;22.00
65556;PMS3003;52200;53.490;14.376;2023-09-12T06:54:37;40.00;34.60;22.00
65556;PMS3003;52200;53.490;14.376;2023-09-12T06:57:02;37.75;33.25;22.00
65556;PMS3003;52200;53.490;14.376;2023-09-12T06:59:28;43.75;36.00;22.00
65556;PMS3003;52200;53.490;14.376;2023-09-12T07:01:53;39.00;34.75;21.00
65556;PMS3003;52200;53.490;14.376;2023-09-12T07:04:19;37.25;33.00;21.00
65556;PMS3003;52200;53.490;14.376;2023-09-12T07:06:44;39.50;34.25;21.00
65556;PMS3003;52200;53.490;14.376;2023-09-12T07:09:09;40.75;35.25;21.25
65556;PMS3003;52200;53.490;14.376;2023-09-12T07:11:36;37.80;34.00;21.00
65556;PMS3003;52200;53.490;14.376;2023-09-12T07:14:02;37.25;33.25;21.75
65556;PMS3003;52200;53.490;14.376;2023-09-12T07:16:29;35.60;32.00;19.80
65556;PMS3003;52200;53.490;14.376;2023-09-12T07:18:55;38.60;33.80;21.00
65556;PMS3003;52200;53.490;14.376;2023-09-12T07:21:20;38.00;32.00;21.00
65556;PMS3003;52200;53.490;14.376;2023-09-12T07:23:47;39.25;34.00;22.00
65556;PMS3003;52200;53.490;14.376;2023-09-12T07:26:13;37.60;33.60;21.00
65556;PMS3003;52200;53.490;14.376;2023-09-12T07:28:39;34.80;32.00;19.80
65556;PMS3003;52200;53.490;14.376;2023-09-12T07:31:05;32.25;30.50;19.00
65556;PMS3003;52200;53.490;14.376;2023-09-12T07:33:30;34.00;31.50;19.25
65556;PMS3003;52200;53.490;14.376;2023-09-12T07:35:56;33.00;31.25;20.50
65556;PMS3003;52200;53.490;14.376;2023-09-12T07:38:21;34.50;31.25;19.25
65556;PMS3003;52200;53.490;14.376;2023-09-12T07:40:47;34.25;31.00;18.00
65556;PMS3003;52200;53.490;14.376;2023-09-12T07:43:12;34.50;30.25;19.00
65556;PMS3003;52200;53.490;14.376;2023-09-12T07:45:38;33.75;31.00;19.50
65556;PMS3003;52200;53.490;14.376;2023-09-12T07:48:05;29.00;27.75;18.50
65556;PMS3003;52200;53.490;14.376;2023-09-12T07:50:31;27.40;27.40;17.40
65556;PMS3003;52200;53.490;14.376;2023-09-12T07:52:57;31.50;29.50;19.75
65556;PMS3003;52200;53.490;14.376;2023-09-12T07:55:22;30.00;28.75;18.25
65556;PMS3003;52200;53.490;14.376;2023-09-12T07:57:47;29.75;28.50;17.25
65556;PMS3003;52200;53.490;14.376;2023-09-12T08:00:13;31.00;29.50;19.00
65556;PMS3003;52200;53.490;14.376;2023-09-12T08:02:38;29.50;27.50;18.00
65556;PMS3003;52200;53.490;14.376;2023-09-12T08:05:04;26.60;25.20;16.20
65556;PMS3003;52200;53.490;14.376;2023-09-12T08:07:30;28.80;28.80;17.00
65556;PMS3003;52200;53.490;14.376;2023-09-12T08:09:57;25.00;25.00;16.00
65556;PMS3003;52200;53.490;14.376;2023-09-12T08:12:24;28.60;27.80;16.40
65556;PMS3003;52200;53.490;14.376;2023-09-12T08:14:51;22.60;21.60;14.40
65556;PMS3003;52200;53.490;14.376;2023-09-12T08:17:17;24.80;24.00;14.00
65556;PMS3003;52200;53.490;14.376;2023-09-12T08:19:43;23.50;23.25;13.00
65556;PMS3003;52200;53.490;14.376;2023-09-12T08:22:09;25.60;23.80;14.20
65556;PMS3003;52200;53.490;14.376;2023-09-12T08:24:35;24.60;22.40;13.80
65556;PMS3003;52200;53.490;14.376;2023-09-12T08:27:01;22.80;22.60;15.00
65556;PMS3003;52200;53.490;14.376;2023-09-12T08:29:28;24.00;22.00;13.60
65556;PMS3003;52200;53.490;14.376;2023-09-12T08:31:53;22.80;20.00;13.80
65556;PMS3003;52200;53.490;14.376;2023-09-12T08:34:20;26.00;24.00;14.00
65556;PMS3003;52200;53.490;14.376;2023-09-12T08:36:46;23.40;22.60;14.80
65556;PMS3003;52200;53.490;14.376;2023-09-12T08:39:14;21.00;20.20;13.00
65556;PMS3003;52200;53.490;14.376;2023-09-12T08:41:41;23.20;22.80;13.20
65556;PMS3003;52200;53.490;14.376;2023-09-12T08:44:07;19.00;18.80;11.60
65556;PMS3003;52200;53.490;14.376;2023-09-12T08:46:34;20.40;20.20;13.00
65556;PMS3003;52200;53.490;14.376;2023-09-12T08:48:59;23.50;21.00;13.25
65556;PMS3003;52200;53.490;14.376;2023-09-12T08:51:25;25.75;23.50;15.00
65556;PMS3003;52200;53.490;14.376;2023-09-12T08:53:51;24.00;22.00;14.00
65556;PMS3003;52200;53.490;14.376;2023-09-12T08:56:17;23.50;22.25;14.00
65556;PMS3003;52200;53.490;14.376;2023-09-12T08:58:43;21.20;21.00;14.20
65556;PMS3003;52200;53.490;14.376;2023-09-12T09:01:09;25.75;24.25;13.50
65556;PMS3003;52200;53.490;14.376;2023-09-12T09:03:38;23.20;22.60;13.40
65556;PMS3003;52200;53.490;14.376;2023-09-12T09:06:06;23.20;22.80;14.40
65556;PMS3003;52200;53.490;14.376;2023-09-12T09:08:34;22.20;21.60;13.80
65556;PMS3003;52200;53.490;14.376;2023-09-12T09:11:00;23.80;23.20;14.00
65556;PMS3003;52200;53.490;14.376;2023-09-12T09:13:31;20.40;19.20;11.00
65556;PMS3003;52200;53.490;14.376;2023-09-12T09:18:56;22.60;21.60;12.20
65556;PMS3003;52200;53.490;14.376;2023-09-12T09:21:24;26.40;22.60;12.60
65556;PMS3003;52200;53.490;14.376;2023-09-12T09:23:52;23.80;23.60;13.20
65556;PMS3003;52200;53.490;14.376;2023-09-12T09:26:20;20.80;20.00;12.40
65556;PMS3003;52200;53.490;14.376;2023-09-12T09:31:51;23.00;22.00;12.40
65556;PMS3003;52200;53.490;14.376;2023-09-12T09:34:17;20.00;19.20;12.00
65556;PMS3003;52200;53.490;14.376;2023-09-12T09:36:48;21.20;21.20;12.00
65556;PMS3003;52200;53.490;14.376;2023-09-12T09:39:18;22.00;21.40;13.60
65556;PMS3003;52200;53.490;14.376;2023-09-12T09:41:49;21.40;20.60;14.00
65556;PMS3003;52200;53.490;14.376;2023-09-12T09:44:15;23.20;21.00;13.00
65556;PMS3003;52200;53.490;14.376;2023-09-12T09:46:45;23.40;22.40;14.00
65556;PMS3003;52200;53.490;14.376;2023-09-12T09:49:14;22.20;21.80;14.00
65556;PMS3003;52200;53.490;14.376;2023-09-12T09:51:40;25.40;24.40;13.20
65556;PMS3003;52200;53.490;14.376;2023-09-12T09:54:07;20.80;20.20;12.40
65556;PMS3003;52200;53.490;14.376;2023-09-12T09:56:33;20.80;20.20;12.80
65556;PMS3003;52200;53.490;14.376;2023-09-12T09:59:11;22.20;21.00;13.20
65556;PMS3003;52200;53.490;14.376;2023-09-12T10:01:40;21.00;21.00;13.20
65556;PMS3003;52200;53.490;14.376;2023-09-12T10:04:06;20.80;20.80;13.20
65556;PMS3003;52200;53.490;14.376;2023-09-12T10:06:32;24.00;22.80;13.00
65556;PMS3003;52200;53.490;14.376;2023-09-12T10:09:02;21.20;19.00;10.40
65556;PMS3003;52200;53.490;14.376;2023-09-12T10:11:34;19.20;18.60;11.20
65556;PMS3003;52200;53.490;14.376;2023-09-12T10:14:02;20.60;19.40;11.60
65556;PMS3003;52200;53.490;14.376;2023-09-12T10:16:35;22.40;20.20;12.00
65556;PMS3003;52200;53.490;14.376;2023-09-12T10:19:10;24.00;22.60;13.40
65556;PMS3003;52200;53.490;14.376;2023-09-12T10:24:49;19.00;19.00;11.20
65556;PMS3003;52200;53.490;14.376;2023-09-12T10:27:15;16.60;15.20;8.60
65556;PMS3003;52200;53.490;14.376;2023-09-12T10:29:43;18.80;17.20;10.00
65556;PMS3003;52200;53.490;14.376;2023-09-12T10:32:12;15.00;14.40;8.00
65556;PMS3003;52200;53.490;14.376;2023-09-12T10:34:39;18.60;16.40;9.00
65556;PMS3003;52200;53.490;14.376;2023-09-12T10:37:09;16.00;15.20;8.40
65556;PMS3003;52200;53.490;14.376;2023-09-12T10:39:40;15.40;15.20;9.60
65556;PMS3003;52200;53.490;14.376;2023-09-12T10:42:07;17.40;15.20;8.00
65556;PMS3003;52200;53.490;14.376;2023-09-12T10:44:33;17.40;17.40;9.00
65556;PMS3003;52200;53.490;14.376;2023-09-12T10:46:59;21.20;18.00;9.60
65556;PMS3003;52200;53.490;14.376;2023-09-12T10:49:26;18.80;17.00;10.40
65556;PMS3003;52200;53.490;14.376;2023-09-12T10:51:52;18.00;16.80;10.00
65556;PMS3003;52200;53.490;14.376;2023-09-12T10:57:04;20.60;20.60;10.40
65556;PMS3003;52200;53.490;14.376;2023-09-12T10:59:36;21.60;20.20;10.00
65556;PMS3003;52200;53.490;14.376;2023-09-12T11:04:53;21.40;19.20;10.60
65556;PMS3003;52200;53.490;14.376;2023-09-12T11:12:45;20.20;19.20;10.60
65556;PMS3003;52200;53.490;14.376;2023-09-12T11:15:12;24.40;21.40;11.80
65556;PMS3003;52200;53.490;14.376;2023-09-12T11:17:40;24.20;22.20;12.20
65556;PMS3003;52200;53.490;14.376;2023-09-12T11:20:07;20.60;19.80;11.00
65556;PMS3003;52200;53.490;14.376;2023-09-12T11:22:35;24.80;21.80;12.20
65556;PMS3003;52200;53.490;14.376;2023-09-12T11:25:04;19.80;19.40;13.00
65556;PMS3003;52200;53.490;14.376;2023-09-12T11:30:18;21.20;20.40;11.20
65556;PMS3003;52200;53.490;14.376;2023-09-12T11:32:45;22.40;19.80;12.00
65556;PMS3003;52200;53.490;14.376;2023-09-12T11:35:13;23.00;21.80;12.20
65556;PMS3003;52200;53.490;14.376;2023-09-12T11:37:39;21.00;20.40;11.00
65556;PMS3003;52200;53.490;14.376;2023-09-12T11:42:41;21.75;20.25;13.50
65556;PMS3003;52200;53.490;14.376;2023-09-12T11:45:10;23.40;19.60;11.80
65556;PMS3003;52200;53.490;14.376;2023-09-12T11:47:41;21.20;21.00;12.40
65556;PMS3003;52200;53.490;14.376;2023-09-12T11:50:08;21.40;20.20;11.20
65556;PMS3003;52200;53.490;14.376;2023-09-12T11:52:50;23.40;22.80;14.00
65556;PMS3003;52200;53.490;14.376;2023-09-12T11:55:21;22.00;21.00;13.00
65556;PMS3003;52200;53.490;14.376;2023-09-12T11:57:48;19.60;18.80;11.40
65556;PMS3003;52200;53.490;14.376;2023-09-12T12:00:14;20.20;19.40;11.40
65556;PMS3003;52200;53.490;14.376;2023-09-12T12:02:39;20.75;20.50;12.50
65556;PMS3003;52200;53.490;14.376;2023-09-12T12:05:08;22.60;21.80;12.20
65556;PMS3003;52200;53.490;14.376;2023-09-12T12:07:34;22.00;21.00;11.80
65556;PMS3003;52200;53.490;14.376;2023-09-12T12:10:00;23.50;21.00;12.00
65556;PMS3003;52200;53.490;14.376;2023-09-12T12:12:25;21.25;19.75;12.00
65556;PMS3003;52200;53.490;14.376;2023-09-12T12:14:50;22.25;19.75;11.50
65556;PMS3003;52200;53.490;14.376;2023-09-12T12:17:16;21.75;20.00;11.25
65556;PMS3003;52200;53.490;14.376;2023-09-12T12:19:44;21.50;19.75;12.00
65556;PMS3003;52200;53.490;14.376;2023-09-12T12:22:11;23.40;20.80;11.80
65556;PMS3003;52200;53.490;14.376;2023-09-12T12:24:40;21.25;18.50;10.50
65556;PMS3003;52200;53.490;14.376;2023-09-12T12:27:07;24.00;22.60;11.00
65556;PMS3003;52200;53.490;14.376;2023-09-12T12:29:34;19.40;17.60;8.80
65556;PMS3003;52200;53.490;14.376;2023-09-12T12:32:00;20.40;17.20;10.00
65556;PMS3003;52200;53.490;14.376;2023-09-12T12:34:26;17.80;17.40;9.40
65556;PMS3003;52200;53.490;14.376;2023-09-12T12:36:53;19.20;17.40;10.00
65556;PMS3003;52200;53.490;14.376;2023-09-12T12:39:20;15.80;15.00;10.00
65556;PMS3003;52200;53.490;14.376;2023-09-12T12:41:46;17.20;16.00;9.60
65556;PMS3003;52200;53.490;14.376;2023-09-12T12:44:11;18.75;17.75;9.75
65556;PMS3003;52200;53.490;14.376;2023-09-12T12:46:48;20.00;18.00;11.20
65556;PMS3003;52200;53.490;14.376;2023-09-12T12:49:20;16.00;16.00;9.00
65556;PMS3003;52200;53.490;14.376;2023-09-12T12:51:46;18.40;17.80;9.00
65556;PMS3003;52200;53.490;14.376;2023-09-12T12:54:12;15.60;14.60;8.40
65556;PMS3003;52200;53.490;14.376;2023-09-12T12:56:38;17.60;16.60;9.00
65556;PMS3003;52200;53.490;14.376;2023-09-12T12:59:05;16.00;15.50;8.25
65556;PMS3003;52200;53.490;14.376;2023-09-12T13:01:34;18.60;17.00;8.00
65556;PMS3003;52200;53.490;14.376;2023-09-12T13:04:04;17.80;16.80;8.40
65556;PMS3003;52200;53.490;14.376;2023-09-12T13:06:30;15.20;15.00;8.20
65556;PMS3003;52200;53.490;14.376;2023-09-12T13:09:00;18.40;16.40;10.00
65556;PMS3003;52200;53.490;14.376;2023-09-12T13:11:29;16.00;15.80;8.80
65556;PMS3003;52200;53.490;14.376;2023-09-12T13:13:55;17.20;15.80;9.60
65556;PMS3003;52200;53.490;14.376;2023-09-12T13:16:21;16.80;15.60;8.80
65556;PMS3003;52200;53.490;14.376;2023-09-12T13:18:46;16.50;16.00;9.25
65556;PMS3003;52200;53.490;14.376;2023-09-12T13:21:12;15.50;15.50;9.00
65556;PMS3003;52200;53.490;14.376;2023-09-12T13:23:37;16.00;15.50;9.75
65556;PMS3003;52200;53.490;14.376;2023-09-12T13:26:04;15.40;15.20;8.20
65556;PMS3003;52200;53.490;14.376;2023-09-12T13:28:30;16.40;15.80;8.80
65556;PMS3003;52200;53.490;14.376;2023-09-12T13:30:56;18.00;17.00;10.00
65556;PMS3003;52200;53.490;14.376;2023-09-12T13:33:22;19.00;17.80;8.40
65556;PMS3003;52200;53.490;14.376;2023-09-12T13:35:48;16.75;15.75;9.25
65556;PMS3003;52200;53.490;14.376;2023-09-12T13:38:14;16.00;15.80;9.80
65556;PMS3003;52200;53.490;14.376;2023-09-12T13:40:41;17.00;15.80;9.40
65556;PMS3003;52200;53.490;14.376;2023-09-12T13:43:08;15.60;15.20;9.80
65556;PMS3003;52200;53.490;14.376;2023-09-12T13:45:34;16.25;16.25;10.00
65556;PMS3003;52200;53.490;14.376;2023-09-12T13:48:00;17.00;16.40;8.00
65556;PMS3003;52200;53.490;14.376;2023-09-12T13:50:26;18.00;18.00;10.00
65556;PMS3003;52200;53.490;14.376;2023-09-12T13:52:54;16.80;16.20;10.80
65556;PMS3003;52200;53.490;14.376;2023-09-12T13:55:24;16.80;15.60;9.60
65556;PMS3003;52200;53.490;14.376;2023-09-12T13:57:50;17.25;16.50;9.00
65556;PMS3003;52200;53.490;14.376;2023-09-12T14:00:15;16.75;15.75;9.25
65556;PMS3003;52200;53.490;14.376;2023-09-12T14:02:40;17.25;15.75;9.25